Погода Киркукна 2 недели

Киркук, Ирак

04 - 17 марта
  • 04марта
    Сегодня
    +8°
    +19°
    Ясно и безоблачно
    ВремяПогодаТемператураВлажностьДавлениеВетер, м/сВероятность осадков
    00:00Небольшая облачность+13°C49 %727 мм4.1 м/с2 %
    03:00Облачно с прояснениями+12°C49 %726 мм3.3 м/с2 %
    06:00Небольшая облачность+12°C55 %727 мм3.1 м/с7 %
    09:00Небольшая облачность+14°C61 %729 мм5.8 м/с6 %
    12:00Практически безоблачно+17°C42 %728 мм3.2 м/с6 %
    15:00Ясно и безоблачно+18°C34 %727 мм2.4 м/с3 %
    18:00Ясно и безоблачно+16°C53 %728 мм1.9 м/с2 %
    21:00Ясно и безоблачно+14°C67 %729 мм1.4 м/с2 %
  • 05марта
    Вторник
    +10°
    +20°
    Практически безоблачно
    ВремяПогодаТемператураВлажностьДавлениеВетер, м/сВероятность осадков
    00:00Ясно и безоблачно+12°C69 %729 мм1.7 м/с2 %
    03:00Ясно и безоблачно+10°C69 %729 мм1.2 м/с2 %
    06:00Ясно и безоблачно+9°C76 %730 мм1.2 м/с2 %
    09:00Ясно и безоблачно+14°C56 %732 мм0.3 м/с2 %
    12:00Ясно и безоблачно+18°C38 %732 мм1.6 м/с2 %
    15:00Практически безоблачно+20°C31 %731 мм3.0 м/с2 %
    18:00Ясно и безоблачно+16°C56 %731 мм2.0 м/с2 %
    21:00Ясно и безоблачно+13°C68 %732 мм1.1 м/с2 %
  • 06марта
    Среда
    +12°
    +21°
    Ясно и безоблачно
    ВремяПогодаТемператураВлажностьДавлениеВетер, м/сВероятность осадков
    00:00Ясно и безоблачно+12°C71 %732 мм1.1 м/с2 %
    03:00Ясно и безоблачно+11°C60 %731 мм1.6 м/с2 %
    06:00Ясно и безоблачно+10°C66 %732 мм1.7 м/с2 %
    09:00Ясно и безоблачно+15°C47 %733 мм2.9 м/с2 %
    12:00Практически безоблачно+19°C36 %732 мм3.8 м/с2 %
    15:00Ясно и безоблачно+20°C33 %731 мм4.1 м/с3 %
    18:00Ясно и безоблачно+17°C48 %729 мм3.6 м/с2 %
    21:00Ясно и безоблачно+16°C49 %729 мм5.2 м/с3 %
  • 07марта
    Четверг
    +9°
    +20°
    Ясно и безоблачно
    ВремяПогодаТемператураВлажностьДавлениеВетер, м/сВероятность осадков
    00:00Небольшая облачность+15°C45 %728 мм4.3 м/с22 %
    03:00Практически безоблачно+14°C48 %727 мм6.8 м/с49 %
    06:00Ясно и безоблачно+12°C51 %728 мм4.3 м/с35 %
    09:00Ясно и безоблачно+15°C45 %729 мм5.4 м/с25 %
    12:00Ясно и безоблачно+18°C34 %729 мм4.6 м/с12 %
    15:00Ясно и безоблачно+20°C33 %728 мм3.8 м/с14 %
    18:00Ясно и безоблачно+17°C49 %728 мм3.2 м/с5 %
    21:00Ясно и безоблачно+15°C69 %729 мм1.8 м/с2 %
  • 08марта
    Пятница
    +11°
    +20°
    Облачно с прояснениями
    ВремяПогодаТемператураВлажностьДавлениеВетер, м/сВероятность осадков
    00:00Ясно и безоблачно+13°C71 %729 мм1.1 м/с2 %
    03:00Ясно и безоблачно+11°C83 %729 мм1.1 м/с2 %
    06:00Ясно и безоблачно+10°C82 %730 мм0.8 м/с2 %
    09:00Ясно и безоблачно+15°C58 %731 мм0.4 м/с4 %
    12:00Небольшая облачность+18°C42 %731 мм1.7 м/с7 %
    15:00Облачно с прояснениями+20°C33 %730 мм2.7 м/с22 %
    18:00Небольшая облачность+17°C55 %729 мм1.6 м/с7 %
    21:00Облачно с прояснениями+15°C62 %730 мм1.2 м/с5 %
Мы используем cookies
Соглашаюсь